Latest Weather Observations for Leinster

IDW60801

Issued at 8:03 am WST Monday 5 December 2016 (issued every 30 minutes, with the page automatically refreshed every 10 minutes)

About weather observations | Map of weather stations | Latest weather observations for WA | Other Formats
Station Details ID: 012314 Name: LEINSTER AERO Lat: -27.84 Lon: 120.70 Height: 497.0 m
Data from the previous 72 hours. | See also: Recent months at Leinster
Date/Time
WST
Temp
°C
App
Temp
°C
Dew
Point
°C
Rel
Hum
%
Delta-T
°C
Wind Press
QNH
hPa
Press
MSL
hPa
Rain since
9am
mm
Dir  Spd
km/h
Gust
km/h
Spd
kts
Gust
kts
05/08:00am 28.6 25.4 9.8 31 10.8 NE 17 22 9 12 1008.5 1004.9 -
05/07:30am 28.2 24.6 9.9 32 10.5 ENE 19 26 10 14 1008.5 1004.9 0.0
05/07:00am 27.2 23.3 9.5 33 10.0 ENE 20 28 11 15 1008.5 1004.9 0.0
05/06:30am 26.4 22.9 8.8 33 9.8 ENE 17 24 9 13 1008.2 1004.6 0.0
05/06:00am 25.1 22.9 7.7 33 9.5 E 9 15 5 8 1008.2 1004.6 0.0
05/05:30am 23.6 21.2 6.8 34 8.9 ENE 9 13 5 7 1007.9 1004.3 0.0
05/05:00am 22.7 20.2 3.8 29 9.4 E 6 9 3 5 1007.6 1004.0 0.0
05/04:30am 23.2 20.3 1.5 24 10.4 ESE 6 7 3 4 1007.2 1003.7 0.0
05/04:00am 23.4 21.2 1.1 23 10.6 SSE 2 7 1 4 1007.0 1003.4 0.0
05/03:30am 24.0 20.5 -1.0 19 11.5 SSE 7 11 4 6 1006.8 1003.2 0.0
05/03:00am 24.7 20.8 -1.2 18 12.0 S 9 11 5 6 1006.8 1003.2 0.0
05/02:30am 24.7 21.3 -2.0 17 12.1 SE 6 9 3 5 1006.6 1003.0 0.0
05/02:00am 24.4 20.8 -2.2 17 12.0 S 7 9 4 5 1006.5 1002.9 0.0
05/01:30am 24.3 20.8 -3.1 16 12.1 SW 6 9 3 5 1006.7 1003.1 0.0
05/01:00am 25.0 21.2 -3.4 15 12.6 S 7 7 4 4 1007.2 1003.7 0.0
05/12:30am 25.6 22.1 -2.9 15 12.8 S 6 7 3 4 1007.4 1003.9 0.0
05/12:00am 24.5 22.1 -2.9 16 12.2 CALM 0 0 0 0 1007.4 1003.9 0.0
 
Date/Time
WST
Temp
°C
App
Temp
°C
Dew
Point
°C
Rel
Hum
%
Delta-T
°C
Wind Press
QNH
hPa
Press
MSL
hPa
Rain since
9am
mm
Dir  Spd
km/h
Gust
km/h
Spd
kts
Gust
kts
04/11:30pm 25.0 21.5 -2.5 16 12.4 S 6 7 3 4 1007.4 1003.9 0.0
04/11:00pm 25.5 21.4 -3.0 15 12.8 SE 9 11 5 6 1007.7 1004.1 0.0
04/10:30pm 26.0 22.3 -2.6 15 13.0 S 7 11 4 6 1007.8 1004.2 0.0
04/10:00pm 26.7 23.0 -3.0 14 13.5 SSE 7 9 4 5 1007.9 1004.3 0.0
04/09:30pm 27.5 23.0 -3.3 13 14.0 SE 11 13 6 7 1008.0 1004.4 0.0
04/09:00pm 28.1 24.0 -2.9 13 14.2 S 9 11 5 6 1008.0 1004.4 0.0
04/08:30pm 29.1 25.0 -3.2 12 14.8 S 9 13 5 7 1007.9 1004.3 0.0
04/08:00pm 29.9 25.3 -3.7 11 15.4 S 11 13 6 7 1007.9 1004.3 0.0
04/07:30pm 30.7 26.1 -4.4 10 16.0 SSW 11 13 6 7 1008.0 1004.4 0.0
04/07:00pm 31.7 27.5 -3.6 10 16.5 SSW 9 13 5 7 1007.9 1004.3 0.0
04/06:30pm 32.4 28.1 -4.5 9 17.0 SW 9 20 5 11 1007.7 1004.1 0.0
04/06:00pm 33.3 28.7 -3.8 9 17.5 WSW 11 19 6 10 1007.6 1004.0 0.0
04/05:30pm 33.8 28.7 -5.0 8 17.9 W 13 22 7 12 1007.3 1003.8 0.0
04/05:00pm 33.4 29.6 -3.7 9 17.5 S 7 11 4 6 1007.3 1003.8 0.0
04/04:30pm 33.5 28.2 -3.7 9 17.5 WNW 15 26 8 14 1007.2 1003.7 0.0
04/04:00pm 33.7 29.2 -3.5 9 17.6 SW 11 19 6 10 1007.2 1003.7 0.0
04/03:30pm 33.6 28.9 -5.2 8 17.8 NW 11 19 6 10 1007.4 1003.9 0.0
04/03:00pm 33.3 27.4 -5.4 8 17.7 WNW 17 28 9 15 1007.7 1004.1 0.0
04/02:30pm 33.5 29.3 -3.7 9 17.5 NNW 9 17 5 9 1007.9 1004.3 0.0
04/02:00pm 32.2 27.9 -2.0 11 16.4 WSW 11 22 6 12 1008.2 1004.6 0.0
04/01:30pm 33.2 28.8 -2.5 10 17.1 SW 11 20 6 11 1008.4 1004.8 0.0
04/01:00pm 32.1 26.8 -0.9 12 16.2 SSW 17 22 9 12 1008.8 1005.2 0.0
04/12:30pm 30.7 26.7 0.2 14 15.0 WSW 11 19 6 10 1009.0 1005.5 0.0
04/12:00pm 30.3 26.5 1.7 16 14.5 SW 11 17 6 9 1009.2 1005.7 0.0
04/11:30am 30.0 26.2 1.5 16 14.3 W 11 17 6 9 1009.4 1005.9 0.0
04/11:00am 29.4 26.3 3.4 19 13.4 SE 9 17 5 9 1009.9 1006.3 0.0
04/10:30am 28.5 23.7 2.7 19 13.1 SW 17 28 9 15 1010.0 1006.4 0.0
04/10:00am 28.2 23.9 3.1 20 12.8 SSE 15 32 8 17 1010.2 1006.6 0.0
04/09:30am 27.4 23.8 5.1 24 11.7 S 13 19 7 10 1010.7 1007.1 0.0
04/09:00am 25.9 21.8 6.0 28 10.5 SSE 17 28 9 15 1010.8 1007.3 0.0
04/08:30am 25.3 21.3 6.5 30 10.0 S 17 24 9 13 1011.2 1007.7 0.0
04/08:00am 24.2 19.1 6.0 31 9.5 S 22 30 12 16 1011.1 1007.6 0.0
04/07:30am 23.2 18.1 6.1 33 8.9 S 22 33 12 18 1011.0 1007.5 0.0
04/07:00am 22.6 17.1 6.0 34 8.6 S 24 32 13 17 1011.2 1007.7 0.0
04/06:30am 21.6 16.8 4.7 33 8.5 S 19 24 10 13 1011.2 1007.7 0.0
04/06:00am 21.1 15.9 3.8 32 8.5 S 20 28 11 15 1011.0 1007.5 0.0
04/05:30am 20.4 16.0 2.7 31 8.5 SSW 15 20 8 11 1010.8 1007.3 0.0
04/05:00am 20.3 15.8 2.2 30 8.6 SSW 15 22 8 12 1010.4 1006.8 0.0
04/04:30am 20.5 16.6 1.4 28 8.9 SSW 11 17 6 9 1010.2 1006.6 0.0
04/04:00am 21.5 16.6 1.7 27 9.4 S 17 24 9 13 1009.8 1006.2 0.0
04/03:30am 21.9 17.6 1.0 25 9.8 SSW 13 19 7 10 1009.3 1005.8 0.0
04/03:00am 22.4 17.9 -0.3 22 10.5 SSW 13 19 7 10 1009.3 1005.8 0.0
04/02:30am 23.2 17.3 -1.0 20 11.1 S 20 30 11 16 1008.8 1005.2 0.0
04/02:00am 23.7 18.1 -2.8 17 11.8 SSW 17 22 9 12 1008.2 1004.6 0.0
04/01:30am 24.3 18.3 -3.1 16 12.1 SSW 19 24 10 13 1007.6 1004.0 0.0
04/01:00am 25.1 18.9 -3.3 15 12.7 SSW 20 30 11 16 1007.3 1003.8 0.0
04/12:30am 25.7 18.7 -3.8 14 13.1 SSW 24 39 13 21 1007.1 1003.6 0.0
04/12:00am 26.4 19.8 -3.2 14 13.4 SSW 22 35 12 19 1007.1 1003.6 0.0
 
Date/Time
WST
Temp
°C
App
Temp
°C
Dew
Point
°C
Rel
Hum
%
Delta-T
°C
Wind Press
QNH
hPa
Press
MSL
hPa
Rain since
9am
mm
Dir  Spd
km/h
Gust
km/h
Spd
kts
Gust
kts
03/11:30pm 27.2 20.2 -3.6 13 13.8 SSW 24 33 13 18 1006.9 1003.3 0.0
03/11:00pm 27.8 20.3 -4.2 12 14.3 SW 26 39 14 21 1006.6 1003.0 0.0
03/10:30pm 28.7 20.6 -3.5 12 14.7 SW 30 43 16 23 1006.3 1002.7 0.0
03/10:00pm 29.4 22.5 -2.9 12 15.0 SW 24 37 13 20 1006.5 1002.9 0.0
03/09:30pm 30.0 23.4 -3.6 11 15.4 SW 22 32 12 17 1006.4 1002.8 0.0
03/09:00pm 30.9 23.1 -4.2 10 16.1 SW 28 41 15 22 1006.1 1002.5 0.0
03/08:30pm 31.6 23.8 -3.7 10 16.4 SW 28 39 15 21 1005.6 1002.0 0.0
03/08:00pm 32.8 25.5 -2.8 10 17.0 SW 26 37 14 20 1004.9 1001.3 0.0
03/07:30pm 33.7 26.1 -2.1 10 17.3 WSW 28 37 15 20 1004.3 1000.7 0.0
03/07:00pm 34.5 26.4 -2.9 9 18.0 WSW 30 41 16 22 1003.9 1000.3 0.0
03/06:30pm 35.4 26.8 -2.3 9 18.4 WSW 33 48 18 26 1003.4 999.7 0.0
03/06:00pm 36.7 28.8 -4.7 7 19.7 W 28 41 15 22 1002.9 999.3 0.0
03/05:30pm 38.0 29.5 -3.7 7 20.2 W 32 50 17 27 1002.4 998.8 0.0
03/05:20pm 37.9 28.4 -3.8 7 20.2 W 37 59 20 32 1002.2 998.6 0.0
03/05:00pm 38.8 29.9 -5.2 6 21.1 W 33 48 18 26 1002.0 998.4 0.0
03/04:37pm 39.2 30.3 -4.9 6 21.2 W 33 52 18 28 1001.9 998.3 0.0
03/04:30pm 39.0 29.4 -5.1 6 21.1 W 37 52 20 28 1001.9 998.3 0.0
03/04:02pm 39.4 31.7 -2.7 7 20.9 W 28 54 15 29 1001.8 998.2 0.0
03/04:00pm 39.4 31.9 -4.8 6 21.4 W 26 52 14 28 1001.9 998.3 0.0
03/03:36pm 39.7 31.4 -4.6 6 21.5 WNW 30 48 16 26 1002.1 998.5 0.0
03/03:30pm 39.5 31.8 -2.6 7 21.0 WNW 28 46 15 25 1002.2 998.6 0.0
03/03:00pm 39.1 30.9 -1.1 8 20.5 NW 32 48 17 26 1002.4 998.8 0.0
03/02:32pm 39.9 32.5 -0.5 8 20.8 WNW 28 46 15 25 1002.6 999.0 0.0
03/02:30pm 40.3 32.6 -0.3 8 21.1 WNW 30 46 16 25 1002.7 999.1 0.0
03/02:04pm 40.1 32.7 -0.4 8 20.9 NW 28 48 15 26 1002.9 999.3 0.0
03/02:00pm 40.3 33.0 -0.3 8 21.1 NW 28 48 15 26 1003.0 999.4 0.0
03/01:30pm 40.2 32.9 -0.3 8 21.0 WNW 28 52 15 28 1003.1 999.5 0.0
03/01:28pm 40.5 33.2 -0.1 8 21.1 WNW 28 52 15 28 1003.1 999.5 0.0
03/01:00pm 39.6 32.9 -0.8 8 20.8 W 24 37 13 20 1003.6 1000.0 0.0
03/12:44pm 39.7 32.3 -0.7 8 20.8 WNW 28 48 15 26 1003.8 1000.2 0.0
03/12:30pm 39.4 32.7 -0.9 8 20.6 WNW 24 43 13 23 1003.9 1000.3 0.0
03/12:22pm 39.2 32.1 -1.1 8 20.5 NW 26 46 14 25 1004.0 1000.4 0.0
03/12:00pm 39.1 31.6 -1.1 8 20.5 WNW 28 44 15 24 1004.1 1000.5 0.0
03/11:30am 38.2 30.4 -3.6 7 20.4 WNW 28 54 15 29 1004.7 1001.1 0.0
03/11:19am 39.5 31.8 -2.6 7 21.0 W 28 50 15 27 1004.7 1001.1 0.0
03/11:00am 39.2 31.9 -2.9 7 20.9 WNW 26 48 14 26 1004.9 1001.3 0.0
03/10:50am 38.3 30.8 -1.7 8 20.1 NW 28 50 15 27 1005.1 1001.5 0.0
03/10:30am 38.2 32.4 -0.2 9 19.7 WNW 20 28 11 15 1005.1 1001.5 0.0
03/10:00am 37.4 31.1 -0.8 9 19.4 WNW 22 35 12 19 1005.5 1001.9 0.0
03/09:30am 36.7 32.7 2.7 12 18.1 NW 13 22 7 12 1005.6 1002.0 0.0
03/09:00am 35.7 32.1 5.1 15 16.9 NNW 13 19 7 10 1005.6 1002.0 0.0
03/08:30am 33.7 30.0 6.1 18 15.2 NW 15 19 8 10 1005.6 1002.0 0.0
03/08:00am 33.1 29.8 6.4 19 14.8 NW 13 20 7 11 1005.6 1002.0 0.0
03/07:30am 31.3 27.8 7.1 22 13.4 NNW 15 22 8 12 1005.3 1001.8 0.0
03/07:00am 30.2 27.5 7.4 24 12.7 NNE 11 17 6 9 1005.3 1001.8 0.0
03/06:30am 28.3 26.4 7.5 27 11.4 ENE 7 11 4 6 1005.0 1001.4 0.0
03/06:00am 26.6 24.7 7.6 30 10.4 E 7 11 4 6 1004.7 1001.1 0.0
03/05:30am 24.9 23.0 7.5 33 9.4 E 7 9 4 5 1004.4 1000.8 0.0
03/05:00am 24.4 22.4 7.1 33 9.3 ESE 7 9 4 5 1004.1 1000.5 0.0
03/04:30am 25.0 23.0 7.2 32 9.6 ESE 7 11 4 6 1004.0 1000.4 0.0
03/04:00am 25.3 22.9 7.0 31 9.9 ESE 9 11 5 6 1003.9 1000.3 0.0
03/03:30am 25.5 23.0 6.7 30 10.0 ESE 9 11 5 6 1004.0 1000.4 0.0
03/03:00am 26.1 23.2 6.7 29 10.4 SE 11 13 6 7 1004.0 1000.4 0.0
03/02:30am 26.7 23.8 6.7 28 10.8 SE 11 17 6 9 1004.1 1000.5 0.0
03/02:00am 27.3 24.1 6.7 27 11.2 ESE 13 17 7 9 1004.2 1000.6 0.0
03/01:30am 27.6 24.3 6.4 26 11.4 ESE 13 20 7 11 1004.5 1000.9 0.0
03/01:00am 27.9 24.9 6.1 25 11.7 ESE 11 15 6 8 1004.8 1001.2 0.0
03/12:30am 28.5 25.5 6.0 24 12.1 SE 11 15 6 8 1005.1 1001.5 0.0
03/12:00am 29.1 25.7 5.9 23 12.5 ESE 13 20 7 11 1005.5 1001.9 0.0
 
Date/Time
WST
Temp
°C
App
Temp
°C
Dew
Point
°C
Rel
Hum
%
Delta-T
°C
Wind Press
QNH
hPa
Press
MSL
hPa
Rain since
9am
mm
Dir  Spd
km/h
Gust
km/h
Spd
kts
Gust
kts
02/11:30pm 28.6 25.5 5.5 23 12.3 SE 11 13 6 7 1005.7 1002.1 0.0
02/11:00pm 28.8 26.2 4.3 21 12.8 SSE 7 9 4 5 1006.1 1002.5 0.0
02/10:30pm 29.6 26.6 4.3 20 13.3 SSE 9 13 5 7 1006.2 1002.6 0.0
02/10:00pm 30.4 26.9 3.4 18 14.1 SSE 11 15 6 8 1006.3 1002.7 0.0
02/09:30pm 31.0 27.6 3.9 18 14.2 SSE 11 15 6 8 1006.2 1002.6 0.0
02/09:00pm 31.9 28.1 3.8 17 14.9 SE 13 17 7 9 1006.1 1002.5 0.0
02/08:30pm 32.5 28.2 3.5 16 15.3 SSE 15 19 8 10 1005.9 1002.3 0.0
02/08:00pm 32.9 29.8 3.8 16 15.5 SE 9 9 5 5 1005.2 1001.6 0.0
02/07:30pm 34.0 31.3 3.7 15 16.1 ESE 7 11 4 6 1005.1 1001.5 0.0
02/07:00pm 35.0 32.3 3.5 14 16.9 SE 7 11 4 6 1004.8 1001.2 0.0
02/06:30pm 35.8 33.8 4.2 14 17.1 E 4 9 2 5 1004.6 1001.0 0.0
02/06:00pm 36.5 34.7 3.7 13 17.8 ESE 2 7 1 4 1004.5 1000.9 0.0
02/05:30pm 36.6 33.5 3.7 13 17.8 NW 9 15 5 8 1004.5 1000.9 0.0
02/05:00pm 37.4 34.6 3.2 12 18.5 NW 7 11 4 6 1004.7 1001.1 0.0
02/04:30pm 37.0 32.6 2.9 12 18.2 WSW 15 24 8 13 1004.9 1001.3 0.0
02/04:00pm 36.7 34.0 3.8 13 17.9 NNW 7 17 4 9 1005.2 1001.6 0.0
02/03:30pm 37.8 34.7 3.5 12 18.6 WSW 9 17 5 9 1005.7 1002.1 0.0
02/03:00pm 36.7 32.3 2.7 12 18.1 NNW 15 26 8 14 1006.3 1002.7 0.0
02/02:30pm 36.2 32.3 3.4 13 17.6 SW 13 20 7 11 1006.7 1003.1 0.0
02/02:00pm 35.6 32.0 5.0 15 16.8 WSW 13 22 7 12 1007.3 1003.8 0.0
02/01:30pm 35.6 32.8 5.0 15 16.8 NW 9 17 5 9 1007.7 1004.1 0.0
02/01:00pm 34.3 32.0 5.8 17 15.8 NE 7 13 4 7 1008.1 1004.5 0.0
02/12:30pm 34.2 30.9 6.5 18 15.4 E 13 20 7 11 1008.6 1005.0 0.0
02/12:00pm 32.2 29.1 5.7 19 14.5 E 11 20 6 11 1009.2 1005.7 0.0
02/11:30am 31.4 28.5 6.5 21 13.7 ENE 11 17 6 9 1009.5 1006.0 0.0
02/11:00am 31.0 27.0 6.8 22 13.4 NE 17 24 9 13 1010.1 1006.5 0.0
02/10:30am 30.6 26.8 7.7 24 12.8 ENE 17 28 9 15 1010.4 1006.8 0.0
02/10:00am 29.1 26.1 7.7 26 11.9 ENE 13 26 7 14 1010.8 1007.3 0.0
02/09:30am 27.8 24.1 8.1 29 10.9 E 17 24 9 13 1010.9 1007.4 0.0
02/09:00am 26.4 22.3 7.9 31 10.2 ESE 19 28 10 15 1011.1 1007.6 0.0
02/08:30am 25.1 20.9 8.1 34 9.3 ESE 20 30 11 16 1011.1 1007.6 0.0

Other Formats:

Comma delimited format used in spreadsheet applications
http://www.bom.gov.au/fwo/IDW60801/IDW60801.95448.axf

JavaScript Object Notation format (JSON) in row-major order
http://www.bom.gov.au/fwo/IDW60801/IDW60801.95448.json